ADDS METAR Data INFO
IDs: Format: Raw Decoded Include TAF

Data at: 1319 UTC 11 Dec 2017

KDSM 111254Z 23007KT 10SM BKN210 OVC250 01/M04 A2980 RMK AO2 SLP098 T00061044
KDSM 111154Z 00000KT 10SM SCT140 BKN210 00/M04 A2982 RMK AO2 SLP106 T00001044 10017 21011 58042
KDSM 111054Z 00000KT 10SM OVC160 01/M04 A2987 RMK AO2 SLP121 T00061039
KDSM 110954Z 19003KT 10SM FEW130 BKN170 00/M04 A2991 RMK AO2 SLP135 T00001044
KDSM 110854Z 18008KT 10SM BKN150 OVC200 00/M04 A2995 RMK AO2 SLP149 T00001039 58024
KDSM 110754Z 00000KT 10SM SCT180 BKN250 01/M04 A2997 RMK AO2 SLP156 T00111044
KDSM 110654Z 18006KT 10SM SCT180 BKN230 00/M04 A3001 RMK AO2 SLP168 T00001044
KDSM 110554Z 17004KT 10SM FEW120 OVC140 01/M04 A3003 RMK AO2 SLP174 T00111039 10050 20011 400831061 56019
KDSM 110454Z 19006KT 10SM FEW120 OVC140 02/M04 A3005 RMK AO2 SLP181 T00171039
KDSM 110354Z 00000KT 10SM FEW110 OVC140 02/M04 A3006 RMK AO2 SLP188 T00221039
KDSM 110254Z 24003KT 10SM FEW110 BKN140 02/M04 A3008 RMK AO2 SLP195 T00221044 58001
KDSM 110154Z VRB04KT 10SM SCT100 04/M04 A3009 RMK AO2 SLP196 T00391039
KDSM 110054Z 31003KT 10SM FEW100 04/M04 A3009 RMK AO2 SLP198 T00441039
KDSM 102354Z 32005KT 10SM SCT110 SCT250 05/M04 A3009 RMK AO2 SLP196 T00501039 10083 20044 51015
KDSM 102254Z 31005KT 10SM FEW140 FEW250 05/M04 A3007 RMK AO2 SLP191 T00501039
KDSM 102154Z 31010KT 10SM FEW250 08/M04 A3006 RMK AO2 SLP186 T00781039
KDSM 102054Z 30013KT 10SM SCT250 BKN300 08/M04 A3004 RMK AO2 SLP179 T00831039 51008
KDSM 101954Z 32014KT 10SM BKN250 OVC300 08/M04 A3003 RMK AO2 SLP177 T00831039
KDSM 101854Z 33015G21KT 10SM BKN250 OVC300 07/M04 A3003 RMK AO2 SLP176 T00721044
KDSM 101754Z 32012G22KT 10SM SCT250 BKN300 06/M04 A3002 RMK AO2 SLP173 T00611044 10061 21011 50010
KDSM 101654Z 34014G24KT 10SM FEW110 FEW180 SCT250 05/M04 A3003 RMK AO2 SLP178 T00501044
KDSM 101554Z 32014G22KT 10SM SCT120 SCT180 BKN250 03/M04 A3002 RMK AO2 SLP174 T00331039
KDSM 101454Z 30013KT 10SM FEW110 SCT150 BKN190 BKN250 02/M04 A2999 RMK AO2 SLP165 T00171039 51016
KDSM 101354Z 31010KT 10SM FEW200 SCT250 M01/M05 A2998 RMK AO2 SLP164 T10061050
KDSM 101254Z 31009KT 10SM SCT200 M01/M06 A2996 RMK AO2 SLP158 T10111056
KDSM 101154Z 30010KT 10SM BKN200 M01/M06 A2994 RMK AO2 SLP149 T10111061 11006 21061 53004
KDSM 101054Z 26007KT 10SM BKN170 M01/M06 A2992 RMK AO2 SLP142 T10111061
KDSM 100954Z 25008KT 10SM FEW170 M01/M06 A2993 RMK AO2 SLP147 T10111061
KDSM 100854Z 23009KT 10SM SCT170 M02/M07 A2992 RMK AO2 SLP144 T10221067 56041
KDSM 100754Z 21012KT 10SM FEW170 M03/M08 A2994 RMK AO2 SLP149 T10331078
KDSM 100654Z 19009KT 10SM BKN170 M06/M09 A2999 RMK AO2 SLP169 T10561089
KDSM 100554Z 17007KT 10SM FEW140 M06/M10 A3005 RMK AO2 SLP189 T10611100 11044 21067 410061067 56019
KDSM 100454Z 18004KT 10SM CLR M06/M10 A3007 RMK AO2 SLP195 T10611100
KDSM 100354Z 20009KT 10SM CLR M05/M10 A3008 RMK AO2 SLP199 T10501100
KDSM 100254Z 21006KT 10SM FEW140 FEW180 M06/M10 A3011 RMK AO2 SLP208 T10561100 58017
KDSM 100154Z 22007KT 10SM BKN180 M04/M10 A3013 RMK AO2 SLP215 T10441100